createdAt,value
2023-04-15T00:00:24.472Z,1414.00
2023-04-15T00:01:24.472Z,1400.00
2023-04-15T00:02:24.552Z,1409.00
2023-04-15T00:03:24.626Z,1404.00
2023-04-15T00:04:24.564Z,1386.00
2023-04-15T00:05:24.457Z,1374.00
2023-04-15T00:06:24.444Z,1406.00
2023-04-15T00:07:24.432Z,1409.00
2023-04-15T00:08:24.432Z,1391.00
2023-04-15T00:09:24.410Z,1400.00
2023-04-15T00:10:24.417Z,1402.00
2023-04-15T00:11:24.397Z,1409.00
2023-04-15T00:12:24.416Z,1417.00
2023-04-15T00:13:24.396Z,1413.00
2023-04-15T00:14:24.390Z,1407.00
2023-04-15T00:15:24.390Z,1404.00
2023-04-15T00:16:24.383Z,1397.00
2023-04-15T00:17:24.383Z,1395.00
2023-04-15T00:18:24.406Z,1397.00
2023-04-15T00:19:24.396Z,1392.00
2023-04-15T00:20:24.400Z,1383.00
2023-04-15T00:21:24.389Z,1389.00
2023-04-15T00:22:24.439Z,1375.00
2023-04-15T00:23:24.406Z,1346.00
2023-04-15T00:24:24.402Z,1383.00
2023-04-15T00:25:24.386Z,1359.00
2023-04-15T00:26:24.397Z,1366.00
2023-04-15T00:27:24.373Z,1372.00
2023-04-15T00:28:24.392Z,1373.00
2023-04-15T00:29:24.386Z,1368.00
2023-04-15T00:30:24.377Z,1351.00
2023-04-15T00:31:24.465Z,1342.00
2023-04-15T00:32:24.478Z,1354.00
2023-04-15T00:33:24.416Z,1363.00
2023-04-15T00:34:24.381Z,1384.00
2023-04-15T00:35:24.348Z,1378.00
2023-04-15T00:36:24.358Z,1379.00
2023-04-15T00:37:24.370Z,1381.00
2023-04-15T00:38:24.392Z,1373.00
2023-04-15T00:39:24.350Z,1385.00
2023-04-15T00:40:24.372Z,1389.00
2023-04-15T00:41:24.361Z,1381.00
2023-04-15T00:42:24.345Z,1378.00
2023-04-15T00:43:24.382Z,1363.00
2023-04-15T00:44:24.359Z,1364.00
2023-04-15T00:45:24.364Z,1359.00
2023-04-15T00:46:24.445Z,1356.00
2023-04-15T00:47:24.349Z,1366.00
2023-04-15T00:48:24.333Z,1359.00
2023-04-15T00:49:24.318Z,1337.00
2023-04-15T00:50:24.309Z,1303.00
2023-04-15T00:51:24.322Z,1296.00
2023-04-15T00:52:24.315Z,1294.00
2023-04-15T00:53:24.314Z,1304.00
2023-04-15T00:54:24.300Z,1291.00
2023-04-15T00:55:24.312Z,1284.00
2023-04-15T00:56:24.310Z,1298.00
2023-04-15T00:57:24.289Z,1306.00
2023-04-15T00:58:24.278Z,1317.00
2023-04-15T00:59:24.288Z,1316.00
2023-04-15T01:00:24.278Z,1314.00
2023-04-15T01:01:24.278Z,1309.00
2023-04-15T01:02:24.356Z,1289.00
2023-04-15T01:03:24.338Z,1256.00
2023-04-15T01:04:24.350Z,1267.00
2023-04-15T01:05:24.254Z,1258.00
2023-04-15T01:06:24.261Z,1255.00
2023-04-15T01:07:24.254Z,1249.00
2023-04-15T01:08:24.238Z,1263.00
2023-04-15T01:09:24.231Z,1265.00
2023-04-15T01:10:24.282Z,1249.00
2023-04-15T01:11:24.233Z,1243.00
2023-04-15T01:12:24.222Z,1283.00
2023-04-15T01:13:24.237Z,1275.00
2023-04-15T01:14:24.223Z,1230.00
2023-04-15T01:15:24.225Z,1210.00
2023-04-15T01:16:24.252Z,1222.00
2023-04-15T01:17:24.221Z,1210.00
2023-04-15T01:18:24.209Z,1218.00
2023-04-15T01:19:24.243Z,1227.00
2023-04-15T01:20:24.203Z,1212.00
2023-04-15T01:21:24.235Z,1207.00
2023-04-15T01:22:24.195Z,1210.00
2023-04-15T01:23:24.218Z,1224.00
2023-04-15T01:24:24.210Z,1240.00
2023-04-15T01:25:24.193Z,1208.00
2023-04-15T01:26:24.198Z,1190.00
2023-04-15T01:27:24.198Z,1177.00
2023-04-15T01:28:24.180Z,1168.00
2023-04-15T01:29:24.183Z,1182.00
2023-04-15T01:30:24.190Z,1188.00
2023-04-15T01:31:24.237Z,1178.00
2023-04-15T01:32:24.178Z,1185.00
2023-04-15T01:33:24.169Z,1176.00
2023-04-15T01:34:24.164Z,1169.00
2023-04-15T01:35:24.194Z,1178.00
2023-04-15T01:36:24.169Z,1201.00
2023-04-15T01:37:24.173Z,1196.00
2023-04-15T01:38:24.162Z,1136.00
2023-04-15T01:39:24.156Z,1131.00
2023-04-15T01:40:24.166Z,1153.00
2023-04-15T01:41:24.166Z,1138.00
2023-04-15T01:42:24.170Z,1153.00
2023-04-15T01:43:24.149Z,1111.00
2023-04-15T01:44:24.189Z,1118.00
2023-04-15T01:45:24.162Z,1137.00
2023-04-15T01:46:24.166Z,1143.00
2023-04-15T01:47:24.195Z,1103.00
2023-04-15T01:48:24.156Z,1128.00
2023-04-15T01:49:24.139Z,1132.00
2023-04-15T01:50:24.142Z,1105.00
2023-04-15T01:51:24.141Z,1085.00
2023-04-15T01:52:24.139Z,1074.00
2023-04-15T01:53:24.140Z,1079.00
2023-04-15T01:54:24.162Z,1094.00
2023-04-15T01:55:24.143Z,1086.00
2023-04-15T01:56:24.143Z,1104.00
2023-04-15T01:57:24.156Z,1097.00
2023-04-15T01:58:24.155Z,1092.00
2023-04-15T01:59:24.169Z,1079.00
2023-04-15T02:00:24.176Z,1112.00
2023-04-15T02:01:24.204Z,1071.00
2023-04-15T02:02:24.234Z,1081.00
2023-04-15T02:03:24.212Z,1051.00
2023-04-15T02:04:24.180Z,1088.00
2023-04-15T02:05:24.157Z,1080.00
2023-04-15T02:06:24.172Z,1078.00
2023-04-15T02:07:24.167Z,1066.00
2023-04-15T02:08:24.184Z,1060.00
2023-04-15T02:09:24.183Z,1075.00
2023-04-15T02:10:24.183Z,1080.00
2023-04-15T02:11:24.196Z,1075.00
2023-04-15T02:12:24.183Z,1055.00
2023-04-15T02:13:24.206Z,1057.00
2023-04-15T02:14:24.214Z,1050.00
2023-04-15T02:15:24.207Z,1024.00
2023-04-15T02:16:24.239Z,1010.00
2023-04-15T02:17:24.209Z,1038.00
2023-04-15T02:18:24.194Z,1009.00
2023-04-15T02:19:24.196Z,1033.00
2023-04-15T02:20:24.212Z,1020.00
2023-04-15T02:21:24.200Z,1054.00
2023-04-15T02:22:24.212Z,1047.00
2023-04-15T02:23:24.218Z,1034.00
2023-04-15T02:24:24.224Z,1014.00
2023-04-15T02:25:24.241Z,1006.00
2023-04-15T02:26:24.202Z,1021.00
2023-04-15T02:27:24.225Z,1018.00
2023-04-15T02:28:24.223Z,991.00
2023-04-15T02:29:24.228Z,984.00
2023-04-15T02:30:24.223Z,1017.00
2023-04-15T02:31:24.268Z,996.00
2023-04-15T02:32:24.275Z,981.00
2023-04-15T02:33:24.240Z,990.00
2023-04-15T02:34:24.256Z,1032.00
2023-04-15T02:35:24.251Z,1003.00
2023-04-15T02:36:24.261Z,1018.00
2023-04-15T02:37:24.242Z,1007.00
2023-04-15T02:38:24.251Z,979.00
2023-04-15T02:39:24.248Z,978.00
2023-04-15T02:40:24.264Z,970.00
2023-04-15T02:41:24.265Z,973.00
2023-04-15T02:42:24.269Z,934.00
2023-04-15T02:43:24.309Z,894.00
2023-04-15T02:44:24.290Z,941.00
2023-04-15T02:45:24.323Z,946.00
2023-04-15T02:46:24.419Z,1001.00
2023-04-15T02:47:24.327Z,958.00
2023-04-15T02:48:24.350Z,975.00
2023-04-15T02:49:24.353Z,931.00
2023-04-15T02:50:24.358Z,912.00
2023-04-15T02:51:24.367Z,913.00
2023-04-15T02:52:24.381Z,889.00
2023-04-15T02:53:24.374Z,902.00
2023-04-15T02:54:24.396Z,910.00
2023-04-15T02:55:24.409Z,929.00
2023-04-15T02:56:24.411Z,964.00
2023-04-15T02:57:24.405Z,957.00
2023-04-15T02:58:24.411Z,943.00
2023-04-15T02:59:24.434Z,933.00
2023-04-15T03:00:24.441Z,923.00
2023-04-15T03:01:24.497Z,927.00
2023-04-15T03:02:24.766Z,871.00
2023-04-15T03:03:24.518Z,876.00
2023-04-15T03:04:24.472Z,880.00
2023-04-15T03:05:24.493Z,877.00
2023-04-15T03:06:24.479Z,943.00
2023-04-15T03:07:24.503Z,918.00
2023-04-15T03:08:24.521Z,895.00
2023-04-15T03:09:24.508Z,943.00
2023-04-15T03:10:24.519Z,897.00
2023-04-15T03:11:24.524Z,912.00
2023-04-15T03:12:24.541Z,920.00
2023-04-15T03:13:24.526Z,911.00
2023-04-15T03:14:24.535Z,912.00
2023-04-15T03:15:24.539Z,892.00
2023-04-15T03:16:24.532Z,910.00
2023-04-15T03:17:24.537Z,853.00
2023-04-15T03:18:24.531Z,883.00
2023-04-15T03:19:24.551Z,916.00
2023-04-15T03:20:24.560Z,894.00
2023-04-15T03:21:24.558Z,874.00
2023-04-15T03:22:24.579Z,909.00
2023-04-15T03:23:24.566Z,911.00
2023-04-15T03:24:24.557Z,910.00
2023-04-15T03:25:24.573Z,914.00
2023-04-15T03:26:24.569Z,888.00
2023-04-15T03:27:24.580Z,860.00
2023-04-15T03:28:24.569Z,862.00
2023-04-15T03:29:24.565Z,877.00
2023-04-15T03:30:24.576Z,912.00
2023-04-15T03:31:24.598Z,884.00
2023-04-15T03:32:24.610Z,925.00
2023-04-15T03:33:24.585Z,911.00
2023-04-15T03:34:24.612Z,919.00
2023-04-15T03:35:24.588Z,891.00
2023-04-15T03:36:24.630Z,902.00
2023-04-15T03:37:24.626Z,933.00
2023-04-15T03:38:24.619Z,929.00
2023-04-15T03:39:24.615Z,883.00
2023-04-15T03:40:24.636Z,880.00
2023-04-15T03:41:24.643Z,869.00
2023-04-15T03:42:24.662Z,853.00
2023-04-15T03:43:24.662Z,874.00
2023-04-15T03:44:24.647Z,856.00
2023-04-15T03:45:24.681Z,880.00
2023-04-15T03:46:24.712Z,891.00
2023-04-15T03:47:24.685Z,880.00
2023-04-15T03:48:24.736Z,927.00
2023-04-15T03:49:24.682Z,904.00
2023-04-15T03:50:24.682Z,905.00
2023-04-15T03:51:24.716Z,902.00
2023-04-15T03:52:24.704Z,886.00
2023-04-15T03:53:24.701Z,863.00
2023-04-15T03:54:24.681Z,874.00
2023-04-15T03:55:24.692Z,830.00
2023-04-15T03:56:24.693Z,838.00
2023-04-15T03:57:24.712Z,856.00
2023-04-15T03:58:24.718Z,883.00
2023-04-15T03:59:24.721Z,870.00
2023-04-15T04:00:24.735Z,851.00
2023-04-15T04:01:24.729Z,892.00
2023-04-15T04:02:24.906Z,888.00
2023-04-15T04:03:25.002Z,912.00
2023-04-15T04:04:24.940Z,902.00
2023-04-15T04:05:24.745Z,878.00
2023-04-15T04:06:24.740Z,890.00
2023-04-15T04:07:24.752Z,873.00
2023-04-15T04:08:24.757Z,837.00
2023-04-15T04:09:24.773Z,857.00
2023-04-15T04:10:24.781Z,887.00
2023-04-15T04:11:24.779Z,893.00
2023-04-15T04:12:24.791Z,884.00
2023-04-15T04:13:24.811Z,879.00
2023-04-15T04:14:24.814Z,884.00
2023-04-15T04:15:24.855Z,874.00
2023-04-15T04:16:24.964Z,874.00
2023-04-15T04:17:24.873Z,876.00
2023-04-15T04:18:24.844Z,843.00
2023-04-15T04:19:24.851Z,874.00
2023-04-15T04:20:24.866Z,846.00
2023-04-15T04:21:24.889Z,849.00
2023-04-15T04:22:24.894Z,853.00
2023-04-15T04:23:24.892Z,871.00
2023-04-15T04:24:24.900Z,859.00
2023-04-15T04:25:24.922Z,842.00
2023-04-15T04:26:24.944Z,862.00
2023-04-15T04:27:24.953Z,815.00
2023-04-15T04:28:24.968Z,816.00
2023-04-15T04:29:24.976Z,818.00
2023-04-15T04:30:24.989Z,777.00
2023-04-15T04:31:25.038Z,777.00
2023-04-15T04:32:25.031Z,797.00
2023-04-15T04:33:25.041Z,789.00
2023-04-15T04:34:25.030Z,794.00
2023-04-15T04:35:25.045Z,756.00
2023-04-15T04:36:25.068Z,749.00
2023-04-15T04:37:25.070Z,756.00
2023-04-15T04:38:25.076Z,756.00
2023-04-15T04:39:25.098Z,736.00
2023-04-15T04:40:25.132Z,728.00
2023-04-15T04:41:25.140Z,772.00
2023-04-15T04:42:25.148Z,747.00
2023-04-15T04:43:25.150Z,759.00
2023-04-15T04:44:25.172Z,753.00
2023-04-15T04:45:25.182Z,789.00
2023-04-15T04:46:25.203Z,794.00
2023-04-15T04:47:25.246Z,743.00
2023-04-15T04:48:25.221Z,742.00
2023-04-15T04:49:25.235Z,724.00
2023-04-15T04:50:25.256Z,740.00
2023-04-15T04:51:25.269Z,764.00
2023-04-15T04:52:25.275Z,773.00
2023-04-15T04:53:25.281Z,774.00
2023-04-15T04:54:25.294Z,740.00
2023-04-15T04:55:25.299Z,752.00
2023-04-15T04:56:25.302Z,799.00
2023-04-15T04:57:25.297Z,763.00
2023-04-15T04:58:25.322Z,770.00
2023-04-15T04:59:25.316Z,775.00
2023-04-15T05:00:25.357Z,788.00
2023-04-15T05:01:25.354Z,764.00
2023-04-15T05:02:25.441Z,788.00
2023-04-15T05:03:25.457Z,777.00
2023-04-15T05:04:25.341Z,747.00
2023-04-15T05:05:25.357Z,731.00
2023-04-15T05:06:25.380Z,740.00
2023-04-15T05:07:25.367Z,740.00
2023-04-15T05:08:25.376Z,758.00
2023-04-15T05:09:25.402Z,772.00
2023-04-15T05:10:25.407Z,807.00
2023-04-15T05:11:25.425Z,754.00
2023-04-15T05:12:25.418Z,782.00
2023-04-15T05:13:25.468Z,769.00
2023-04-15T05:14:25.452Z,744.00
2023-04-15T05:15:25.458Z,772.00
2023-04-15T05:16:25.468Z,778.00
2023-04-15T05:17:25.527Z,799.00
2023-04-15T05:18:25.528Z,773.00
2023-04-15T05:19:25.514Z,807.00
2023-04-15T05:20:25.511Z,775.00
2023-04-15T05:21:25.540Z,800.00
2023-04-15T05:22:25.554Z,784.00
2023-04-15T05:23:25.586Z,809.00
2023-04-15T05:24:25.577Z,815.00
2023-04-15T05:25:25.578Z,773.00
2023-04-15T05:26:25.602Z,839.00
2023-04-15T05:27:25.617Z,842.00
2023-04-15T05:28:25.619Z,815.00
2023-04-15T05:29:25.620Z,832.00
2023-04-15T05:30:25.651Z,811.00
2023-04-15T05:31:25.658Z,815.00
2023-04-15T05:32:25.691Z,823.00
2023-04-15T05:33:25.681Z,842.00
2023-04-15T05:34:25.675Z,817.00
2023-04-15T05:35:25.701Z,804.00
2023-04-15T05:36:25.722Z,811.00
2023-04-15T05:37:25.716Z,814.00
2023-04-15T05:38:25.728Z,847.00
2023-04-15T05:39:25.743Z,903.00
2023-04-15T05:40:25.772Z,864.00
2023-04-15T05:41:25.786Z,890.00
2023-04-15T05:42:25.804Z,872.00
2023-04-15T05:43:25.801Z,840.00
2023-04-15T05:44:25.826Z,830.00
2023-04-15T05:45:25.819Z,834.00
2023-04-15T05:46:25.909Z,843.00
2023-04-15T05:47:25.854Z,864.00
2023-04-15T05:48:25.845Z,851.00
2023-04-15T05:49:25.860Z,836.00
2023-04-15T05:50:25.856Z,859.00
2023-04-15T05:51:25.868Z,861.00
2023-04-15T05:52:25.879Z,823.00
2023-04-15T05:53:25.878Z,825.00
2023-04-15T05:54:25.902Z,797.00
2023-04-15T05:55:25.902Z,809.00
2023-04-15T05:56:25.934Z,821.00
2023-04-15T05:57:25.928Z,752.00
2023-04-15T05:58:25.936Z,791.00
2023-04-15T05:59:25.968Z,780.00
2023-04-15T06:00:25.944Z,737.00
2023-04-15T06:01:25.971Z,748.00
2023-04-15T06:02:26.037Z,736.00
2023-04-15T06:03:26.079Z,735.00
2023-04-15T06:04:26.127Z,788.00
2023-04-15T06:05:25.991Z,778.00
2023-04-15T06:06:26.008Z,769.00
2023-04-15T06:07:25.995Z,705.00
2023-04-15T06:08:26.011Z,712.00
2023-04-15T06:09:26.016Z,742.00
2023-04-15T06:10:26.027Z,778.00
2023-04-15T06:11:26.028Z,762.00
2023-04-15T06:12:26.034Z,751.00
2023-04-15T06:13:26.041Z,817.00
2023-04-15T06:14:26.038Z,791.00
2023-04-15T06:15:26.082Z,834.00
2023-04-15T06:16:26.067Z,887.00
2023-04-15T06:17:26.100Z,799.00
2023-04-15T06:18:26.073Z,847.00
2023-04-15T06:19:26.080Z,878.00
2023-04-15T06:20:26.092Z,864.00
2023-04-15T06:21:26.081Z,869.00
2023-04-15T06:22:26.099Z,762.00
2023-04-15T06:23:27.032Z,848.00
2023-04-15T06:24:26.103Z,830.00
2023-04-15T06:25:26.111Z,733.00
2023-04-15T06:26:26.107Z,822.00
2023-04-15T06:27:26.108Z,912.00
2023-04-15T06:28:26.104Z,899.00
2023-04-15T06:29:26.122Z,996.00
2023-04-15T06:30:26.120Z,990.00
2023-04-15T06:31:26.121Z,997.00
2023-04-15T06:32:26.167Z,1033.00
2023-04-15T06:33:26.112Z,1004.00
2023-04-15T06:34:26.130Z,1040.00
2023-04-15T06:35:26.140Z,1017.00
2023-04-15T06:36:26.111Z,1009.00
2023-04-15T06:37:26.113Z,1068.00
2023-04-15T06:38:26.138Z,1053.00
2023-04-15T06:39:26.134Z,1039.00
2023-04-15T06:40:26.129Z,1075.00
2023-04-15T06:41:26.130Z,1068.00
2023-04-15T06:42:26.122Z,1081.00
2023-04-15T06:43:26.120Z,1109.00
2023-04-15T06:44:26.169Z,1096.00
2023-04-15T06:45:26.195Z,1084.00
2023-04-15T06:46:26.215Z,1147.00
2023-04-15T06:47:26.137Z,1107.00
2023-04-15T06:48:26.101Z,975.00
2023-04-15T06:49:26.101Z,1044.00
2023-04-15T06:50:26.158Z,1080.00
2023-04-15T06:51:26.842Z,1056.00
2023-04-15T06:52:26.117Z,1102.00
2023-04-15T06:53:26.099Z,1078.00
2023-04-15T06:54:26.108Z,1079.00
2023-04-15T06:55:26.111Z,1057.00
2023-04-15T06:56:26.099Z,1126.00
2023-04-15T06:57:26.088Z,953.00
2023-04-15T06:58:26.092Z,1023.00
2023-04-15T06:59:26.094Z,1081.00
2023-04-15T07:00:26.142Z,986.00
2023-04-15T07:01:26.115Z,991.00
2023-04-15T07:02:26.152Z,882.00
2023-04-15T07:03:26.069Z,951.00
2023-04-15T07:04:26.131Z,977.00
2023-04-15T07:05:26.070Z,1004.00
2023-04-15T07:06:26.086Z,1001.00
2023-04-15T07:07:26.070Z,998.00
2023-04-15T07:08:26.076Z,1004.00
2023-04-15T07:09:26.057Z,992.00
2023-04-15T07:10:26.089Z,980.00
2023-04-15T07:11:26.078Z,967.00
2023-04-15T07:12:26.057Z,923.00
2023-04-15T07:13:26.059Z,896.00
2023-04-15T07:14:26.058Z,832.00
2023-04-15T07:15:26.078Z,878.00
2023-04-15T07:17:26.173Z,765.00
2023-04-15T07:18:26.155Z,744.00
2023-04-15T07:19:26.156Z,681.00
2023-04-15T07:20:26.306Z,650.00
2023-04-15T07:21:26.217Z,655.00
2023-04-15T07:22:26.296Z,631.00
2023-04-15T07:23:26.297Z,650.00
2023-04-15T07:24:26.325Z,647.00
2023-04-15T07:25:26.334Z,630.00
2023-04-15T07:26:26.379Z,636.00
2023-04-15T07:27:26.403Z,630.00
2023-04-15T07:28:26.449Z,630.00
2023-04-15T07:29:26.449Z,637.00
2023-04-15T07:30:26.511Z,641.00
2023-04-15T07:31:26.554Z,645.00
2023-04-15T07:32:26.569Z,627.00
2023-04-15T07:33:26.545Z,621.00
2023-04-15T07:34:26.624Z,626.00
2023-04-15T07:35:26.675Z,634.00
2023-04-15T07:36:26.689Z,626.00
2023-04-15T07:37:26.744Z,619.00
2023-04-15T07:38:26.790Z,623.00
2023-04-15T07:39:26.854Z,617.00
2023-04-15T07:40:26.894Z,618.00
2023-04-15T07:41:26.956Z,622.00
2023-04-15T07:42:27.025Z,630.00
2023-04-15T07:43:27.073Z,623.00
2023-04-15T07:44:27.115Z,623.00
2023-04-15T07:45:27.180Z,621.00
2023-04-15T07:46:27.348Z,626.00
2023-04-15T07:47:27.345Z,620.00
2023-04-15T07:48:27.381Z,625.00
2023-04-15T07:49:27.439Z,620.00
2023-04-15T07:50:27.507Z,623.00
2023-04-15T07:51:27.558Z,623.00
2023-04-15T07:52:27.649Z,618.00
2023-04-15T07:53:27.757Z,628.00
2023-04-15T07:54:27.731Z,629.00
2023-04-15T07:55:28.304Z,622.00
2023-04-15T07:56:27.867Z,620.00
2023-04-15T07:57:27.935Z,625.00
2023-04-15T07:58:27.975Z,623.00
2023-04-15T07:59:28.049Z,618.00
2023-04-15T08:00:28.106Z,618.00
2023-04-15T08:01:28.174Z,618.00
2023-04-15T08:02:28.279Z,612.00
2023-04-15T08:03:28.404Z,623.00
2023-04-15T08:04:28.457Z,613.00
2023-04-15T08:05:28.420Z,611.00
2023-04-15T08:06:28.466Z,608.00
2023-04-15T08:07:28.533Z,610.00
2023-04-15T08:08:28.584Z,609.00
2023-04-15T08:09:28.657Z,628.00
2023-04-15T08:10:28.717Z,624.00
2023-04-15T08:11:28.770Z,635.00
2023-04-15T08:12:28.816Z,638.00
2023-04-15T08:13:28.876Z,637.00
2023-04-15T08:14:28.943Z,631.00
2023-04-15T08:15:29.000Z,618.00
2023-04-15T08:16:29.084Z,599.00
2023-04-15T08:17:29.136Z,598.00
2023-04-15T08:18:29.174Z,597.00
2023-04-15T08:19:29.201Z,590.00
2023-04-15T08:20:29.258Z,591.00
2023-04-15T08:21:29.284Z,589.00
2023-04-15T08:22:29.338Z,581.00
2023-04-15T08:23:29.387Z,590.00
2023-04-15T08:24:29.439Z,602.00
2023-04-15T08:25:29.505Z,617.00
2023-04-15T08:26:29.541Z,624.00
2023-04-15T08:27:29.605Z,637.00
2023-04-15T08:28:29.648Z,629.00
2023-04-15T08:29:29.689Z,649.00
2023-04-15T08:30:29.733Z,641.00
2023-04-15T08:31:29.835Z,635.00
2023-04-15T08:32:29.822Z,634.00
2023-04-15T08:33:29.862Z,598.00
2023-04-15T08:34:29.881Z,585.00
2023-04-15T08:35:29.940Z,577.00
2023-04-15T08:36:29.965Z,575.00
2023-04-15T08:37:30.003Z,575.00
2023-04-15T08:38:30.048Z,581.00
2023-04-15T08:39:30.092Z,572.00
2023-04-15T08:40:30.124Z,576.00
2023-04-15T08:41:30.171Z,574.00
2023-04-15T08:42:30.206Z,559.00
2023-04-15T08:43:30.250Z,559.00
2023-04-15T08:44:30.266Z,556.00
2023-04-15T08:45:30.310Z,574.00
2023-04-15T08:46:30.377Z,582.00
2023-04-15T08:47:30.377Z,580.00
2023-04-15T08:48:30.379Z,589.00
2023-04-15T08:49:30.441Z,604.00
2023-04-15T08:50:30.426Z,620.00
2023-04-15T08:51:30.440Z,641.00
2023-04-15T08:52:30.466Z,633.00
2023-04-15T08:53:30.513Z,645.00
2023-04-15T08:54:30.492Z,650.00
2023-04-15T08:55:30.523Z,656.00
2023-04-15T08:56:30.541Z,649.00
2023-04-15T08:57:30.531Z,659.00
2023-04-15T08:58:30.554Z,715.00
2023-04-15T08:59:30.550Z,732.00
2023-04-15T09:00:30.561Z,705.00
2023-04-15T09:01:30.596Z,790.00
2023-04-15T09:02:30.636Z,802.00
2023-04-15T09:03:30.701Z,826.00
2023-04-15T09:04:30.597Z,777.00
2023-04-15T09:05:30.574Z,816.00
2023-04-15T09:06:30.578Z,838.00
2023-04-15T09:07:30.557Z,860.00
2023-04-15T09:08:30.552Z,831.00
2023-04-15T09:09:30.563Z,799.00
2023-04-15T09:10:30.565Z,822.00
2023-04-15T09:11:30.543Z,839.00
2023-04-15T09:12:30.545Z,857.00
2023-04-15T09:13:30.572Z,863.00
2023-04-15T09:14:30.572Z,857.00
2023-04-15T09:15:30.579Z,851.00
2023-04-15T09:16:30.589Z,894.00
2023-04-15T09:17:30.630Z,880.00
2023-04-15T09:18:30.590Z,907.00
2023-04-15T09:19:30.580Z,896.00
2023-04-15T09:20:30.587Z,913.00
2023-04-15T09:21:30.594Z,916.00
2023-04-15T09:22:30.578Z,894.00
2023-04-15T09:23:30.598Z,907.00
2023-04-15T09:24:30.589Z,869.00
2023-04-15T09:25:32.809Z,859.00
2023-04-15T09:26:30.570Z,846.00
2023-04-15T09:27:30.563Z,843.00
2023-04-15T09:28:30.574Z,870.00
2023-04-15T09:29:30.561Z,843.00
2023-04-15T09:30:30.591Z,818.00
2023-04-15T09:31:30.532Z,811.00
2023-04-15T09:32:30.588Z,790.00
2023-04-15T09:33:30.524Z,796.00
2023-04-15T09:34:30.521Z,791.00
2023-04-15T09:35:30.510Z,732.00
2023-04-15T09:36:30.500Z,715.00
2023-04-15T09:37:32.649Z,692.00
2023-04-15T09:38:30.493Z,728.00
2023-04-15T09:39:30.500Z,742.00
2023-04-15T09:40:30.476Z,702.00
2023-04-15T09:41:30.502Z,679.00
2023-04-15T09:42:30.467Z,698.00
2023-04-15T09:43:30.486Z,711.00
2023-04-15T09:44:30.552Z,703.00
2023-04-15T09:45:30.621Z,700.00
2023-04-15T09:46:30.779Z,709.00
2023-04-15T09:47:30.781Z,667.00
2023-04-15T09:48:30.803Z,669.00
2023-04-15T09:49:30.864Z,659.00
2023-04-15T09:50:30.916Z,694.00
2023-04-15T09:51:30.967Z,707.00
2023-04-15T09:52:31.008Z,683.00
2023-04-15T09:53:31.948Z,695.00
2023-04-15T09:54:31.097Z,686.00
2023-04-15T09:55:31.167Z,697.00
2023-04-15T09:56:31.206Z,648.00
2023-04-15T09:57:31.269Z,652.00
2023-04-15T09:58:31.292Z,653.00
2023-04-15T09:59:31.333Z,643.00
2023-04-15T10:00:31.375Z,644.00
2023-04-15T10:01:31.461Z,639.00
2023-04-15T10:02:31.546Z,643.00
2023-04-15T10:03:31.589Z,647.00
2023-04-15T10:04:31.535Z,632.00
2023-04-15T10:05:31.570Z,630.00
2023-04-15T10:06:31.615Z,636.00
2023-04-15T10:07:31.673Z,633.00
2023-04-15T10:08:31.690Z,630.00
2023-04-15T10:09:31.727Z,631.00
2023-04-15T10:10:31.754Z,640.00
2023-04-15T10:11:31.969Z,647.00
2023-04-15T10:12:31.838Z,651.00
2023-04-15T10:13:31.878Z,637.00
2023-04-15T10:14:31.907Z,651.00
2023-04-15T10:15:31.982Z,650.00
2023-04-15T10:16:31.996Z,637.00
2023-04-15T10:17:32.057Z,631.00
2023-04-15T10:18:32.075Z,644.00
2023-04-15T10:19:32.116Z,656.00
2023-04-15T10:20:32.144Z,651.00
2023-04-15T10:21:32.196Z,647.00
2023-04-15T10:22:32.223Z,641.00
2023-04-15T10:23:32.275Z,642.00
2023-04-15T10:24:32.315Z,642.00
2023-04-15T10:25:32.359Z,643.00
2023-04-15T10:26:32.392Z,637.00
2023-04-15T10:27:32.447Z,653.00
2023-04-15T10:28:32.475Z,646.00
2023-04-15T10:29:32.594Z,637.00
2023-04-15T10:30:32.550Z,646.00
2023-04-15T10:31:32.710Z,645.00
2023-04-15T10:32:32.651Z,652.00
2023-04-15T10:33:32.680Z,685.00
2023-04-15T10:34:32.728Z,665.00
2023-04-15T10:35:32.747Z,659.00
2023-04-15T10:36:32.781Z,662.00
2023-04-15T10:37:32.814Z,654.00
2023-04-15T10:38:32.872Z,664.00
2023-04-15T10:39:32.918Z,690.00
2023-04-15T10:40:32.943Z,724.00
2023-04-15T10:41:33.016Z,682.00
2023-04-15T10:42:33.074Z,660.00
2023-04-15T10:43:33.094Z,661.00
2023-04-15T10:44:33.130Z,700.00
2023-04-15T10:45:33.188Z,705.00
2023-04-15T10:46:33.273Z,662.00
2023-04-15T10:47:33.289Z,666.00
2023-04-15T10:48:33.330Z,686.00
2023-04-15T10:49:33.370Z,672.00
2023-04-15T10:50:33.429Z,700.00
2023-04-15T10:51:33.457Z,742.00
2023-04-15T10:52:33.513Z,742.00
2023-04-15T10:53:33.552Z,751.00
2023-04-15T10:54:33.597Z,732.00
2023-04-15T10:55:33.654Z,716.00
2023-04-15T10:56:33.701Z,711.00
2023-04-15T10:57:33.745Z,784.00
2023-04-15T10:58:33.792Z,794.00
2023-04-15T10:59:33.831Z,779.00
2023-04-15T11:00:33.888Z,778.00
2023-04-15T11:01:33.963Z,784.00
2023-04-15T11:02:34.226Z,810.00
2023-04-15T11:03:34.256Z,838.00
2023-04-15T11:04:34.148Z,822.00
2023-04-15T11:05:34.121Z,803.00
2023-04-15T11:06:34.192Z,788.00
2023-04-15T11:07:34.242Z,801.00
2023-04-15T11:08:34.279Z,812.00
2023-04-15T11:09:34.349Z,806.00
2023-04-15T11:10:34.404Z,774.00
2023-04-15T11:11:34.458Z,696.00
2023-04-15T11:12:34.501Z,756.00
2023-04-15T11:13:34.562Z,730.00
2023-04-15T11:14:34.621Z,736.00
2023-04-15T11:15:34.664Z,773.00
2023-04-15T11:16:34.751Z,784.00
2023-04-15T11:17:34.791Z,747.00
2023-04-15T11:18:34.846Z,702.00
2023-04-15T11:19:34.869Z,761.00
2023-04-15T11:20:34.934Z,824.00
2023-04-15T11:21:34.980Z,780.00
2023-04-15T11:22:35.044Z,762.00
2023-04-15T11:23:35.097Z,796.00
2023-04-15T11:24:35.151Z,720.00
2023-04-15T11:25:35.198Z,703.00
2023-04-15T11:26:35.244Z,664.00
2023-04-15T11:27:35.311Z,720.00
2023-04-15T11:28:36.737Z,672.00
2023-04-15T11:29:35.406Z,734.00
2023-04-15T11:30:35.458Z,751.00
2023-04-15T11:31:35.544Z,773.00
2023-04-15T11:32:35.574Z,797.00
2023-04-15T11:33:35.602Z,754.00
2023-04-15T11:34:36.205Z,813.00
2023-04-15T11:35:35.718Z,794.00
2023-04-15T11:36:35.785Z,793.00
2023-04-15T11:37:35.825Z,779.00
2023-04-15T11:38:35.878Z,776.00
2023-04-15T11:39:35.915Z,782.00
2023-04-15T11:40:35.977Z,861.00
2023-04-15T11:41:36.040Z,823.00
2023-04-15T11:42:48.590Z,826.00
2023-04-15T11:43:37.095Z,829.00
2023-04-15T11:44:36.069Z,832.00
2023-04-15T11:45:36.183Z,848.00
2023-04-15T11:46:36.075Z,835.00
2023-04-15T11:47:36.110Z,894.00
2023-04-15T11:48:36.071Z,909.00
2023-04-15T11:49:36.066Z,837.00
2023-04-15T11:50:36.041Z,905.00
2023-04-15T11:51:36.034Z,890.00
2023-04-15T11:52:36.039Z,805.00
2023-04-15T11:53:36.096Z,792.00
2023-04-15T11:54:36.155Z,864.00
2023-04-15T11:55:36.220Z,880.00
2023-04-15T11:56:36.294Z,850.00
2023-04-15T11:57:36.331Z,909.00
2023-04-15T11:58:36.394Z,883.00
2023-04-15T11:59:44.980Z,865.00
2023-04-15T12:00:37.453Z,866.00
2023-04-15T12:01:36.477Z,808.00
2023-04-15T12:02:36.476Z,793.00
2023-04-15T12:03:36.521Z,807.00
2023-04-15T12:04:36.532Z,855.00
2023-04-15T12:05:36.419Z,802.00
2023-04-15T12:06:36.400Z,802.00
2023-04-15T12:07:36.385Z,714.00
2023-04-15T12:08:36.377Z,709.00
2023-04-15T12:09:36.393Z,733.00
2023-04-15T12:10:36.489Z,682.00
2023-04-15T12:11:36.534Z,662.00
2023-04-15T12:12:36.593Z,660.00
2023-04-15T12:13:36.655Z,714.00
2023-04-15T12:14:36.731Z,621.00
2023-04-15T12:15:36.839Z,626.00
2023-04-15T12:16:44.546Z,620.00
2023-04-15T12:17:51.553Z,610.00
2023-04-15T12:18:37.843Z,621.00
2023-04-15T12:19:36.820Z,624.00
2023-04-15T12:20:36.814Z,622.00
2023-04-15T12:21:36.808Z,575.00
2023-04-15T12:22:36.802Z,613.00
2023-04-15T12:23:36.811Z,634.00